createdAt,value
2023-03-29T00:02:00.184Z,63.35
2023-03-29T00:04:27.640Z,63.37
2023-03-29T00:06:55.211Z,63.46
2023-03-29T00:09:22.377Z,63.65
2023-03-29T00:11:48.755Z,63.72
2023-03-29T00:14:15.344Z,63.99
2023-03-29T00:16:42.076Z,63.85
2023-03-29T00:19:09.053Z,64.04
2023-03-29T00:21:35.354Z,64.59
2023-03-29T00:24:01.664Z,64.57
2023-03-29T00:26:30.061Z,64.53
2023-03-29T00:28:56.410Z,64.93
2023-03-29T00:31:22.799Z,64.91
2023-03-29T00:33:49.197Z,64.88
2023-03-29T00:36:16.039Z,65.22
2023-03-29T00:38:42.495Z,65.11
2023-03-29T00:41:09.202Z,65.15
2023-03-29T00:43:52.840Z,65.24
2023-03-29T00:46:19.297Z,65.55
2023-03-29T00:48:46.560Z,65.69
2023-03-29T00:51:15.072Z,65.74
2023-03-29T00:53:48.761Z,65.82
2023-03-29T00:56:24.112Z,65.58
2023-03-29T00:58:57.102Z,65.77
2023-03-29T01:01:28.263Z,64.36
2023-03-29T01:04:04.630Z,65.15
2023-03-29T01:06:34.455Z,65.96
2023-03-29T01:09:12.504Z,65.39
2023-03-29T01:11:53.716Z,65.40
2023-03-29T01:14:26.388Z,66.03
2023-03-29T01:16:53.244Z,66.10
2023-03-29T01:19:25.027Z,65.99
2023-03-29T01:21:57.705Z,65.72
2023-03-29T01:24:41.725Z,65.67
2023-03-29T01:27:22.608Z,65.39
2023-03-29T01:30:02.037Z,65.93
2023-03-29T01:32:37.534Z,65.92
2023-03-29T01:35:19.170Z,65.84
2023-03-29T01:37:53.180Z,66.38
2023-03-29T01:40:19.555Z,66.39
2023-03-29T01:42:54.083Z,66.36
2023-03-29T01:45:27.139Z,66.40
2023-03-29T01:48:02.402Z,65.34
2023-03-29T01:50:43.076Z,66.10
2023-03-29T01:53:18.022Z,66.33
2023-03-29T01:55:52.559Z,66.07
2023-03-29T01:58:24.316Z,66.12
2023-03-29T02:00:55.123Z,66.58
2023-03-29T02:03:26.332Z,66.61
2023-03-29T02:05:54.734Z,66.97
2023-03-29T02:08:23.045Z,66.60
2023-03-29T02:10:51.624Z,66.82
2023-03-29T02:13:19.339Z,67.07
2023-03-29T02:15:47.393Z,66.99
2023-03-29T02:18:17.596Z,66.87
2023-03-29T02:20:49.867Z,66.82
2023-03-29T02:23:37.222Z,66.16
2023-03-29T02:26:06.593Z,66.60
2023-03-29T02:28:33.324Z,66.88
2023-03-29T02:31:07.639Z,66.34
2023-03-29T02:33:48.599Z,66.21
2023-03-29T02:36:24.082Z,66.49
2023-03-29T02:38:52.635Z,66.83
2023-03-29T02:41:20.432Z,66.66
2023-03-29T02:43:48.530Z,66.64
2023-03-29T02:46:18.349Z,66.99
2023-03-29T02:48:48.305Z,66.88
2023-03-29T02:51:20.253Z,67.12
2023-03-29T02:53:57.066Z,66.79
2023-03-29T02:56:23.498Z,67.25
2023-03-29T02:58:49.842Z,67.14
2023-03-29T03:01:18.164Z,67.13
2023-03-29T03:03:45.076Z,66.83
2023-03-29T03:06:12.180Z,67.00
2023-03-29T03:08:38.488Z,66.81
2023-03-29T03:11:05.022Z,67.14
2023-03-29T03:13:31.369Z,67.14
2023-03-29T03:15:57.745Z,67.25
2023-03-29T03:18:24.106Z,67.28
2023-03-29T03:20:59.062Z,66.63
2023-03-29T03:23:25.587Z,67.27
2023-03-29T03:25:52.646Z,67.60
2023-03-29T03:28:19.909Z,67.37
2023-03-29T03:30:46.398Z,67.71
2023-03-29T03:33:12.990Z,67.34
2023-03-29T03:35:39.567Z,67.54
2023-03-29T03:38:05.974Z,67.70
2023-03-29T03:40:33.385Z,67.44
2023-03-29T03:42:59.958Z,67.60
2023-03-29T03:45:27.064Z,67.70
2023-03-29T03:47:53.925Z,67.57
2023-03-29T03:50:20.520Z,67.58
2023-03-29T03:52:47.055Z,67.24
2023-03-29T03:55:14.226Z,67.48
2023-03-29T03:57:40.756Z,67.49
2023-03-29T04:00:19.976Z,67.74
2023-03-29T04:02:48.252Z,67.54
2023-03-29T04:05:15.606Z,67.71
2023-03-29T04:07:42.690Z,67.57
2023-03-29T04:10:09.815Z,67.67
2023-03-29T04:12:36.680Z,67.91
2023-03-29T04:15:03.693Z,67.72
2023-03-29T04:17:30.203Z,67.51
2023-03-29T04:19:57.642Z,67.82
2023-03-29T04:22:25.823Z,67.90
2023-03-29T04:24:52.406Z,68.10
2023-03-29T04:27:19.091Z,67.89
2023-03-29T04:29:46.427Z,67.89
2023-03-29T04:32:12.956Z,67.90
2023-03-29T04:34:39.464Z,67.92
2023-03-29T04:37:10.412Z,68.19
2023-03-29T04:39:37.682Z,68.22
2023-03-29T04:42:05.167Z,68.20
2023-03-29T04:44:33.681Z,67.77
2023-03-29T04:47:01.106Z,67.82
2023-03-29T04:49:27.651Z,67.72
2023-03-29T04:51:54.362Z,67.81
2023-03-29T04:54:21.274Z,67.90
2023-03-29T04:56:47.855Z,67.70
2023-03-29T04:59:14.398Z,67.84
2023-03-29T05:01:40.978Z,67.73
2023-03-29T05:04:07.495Z,67.56
2023-03-29T05:06:34.132Z,67.60
2023-03-29T05:09:01.197Z,67.60
2023-03-29T05:11:27.748Z,67.81
2023-03-29T05:13:57.149Z,68.25
2023-03-29T05:16:24.472Z,67.80
2023-03-29T05:18:51.749Z,68.05
2023-03-29T05:21:18.518Z,68.17
2023-03-29T05:23:45.056Z,68.14
2023-03-29T05:26:14.559Z,67.99
2023-03-29T05:28:42.088Z,68.01
2023-03-29T05:31:08.931Z,68.06
2023-03-29T05:33:36.563Z,68.09
2023-03-29T05:36:08.375Z,67.77
2023-03-29T05:38:35.779Z,68.21
2023-03-29T05:41:03.161Z,68.11
2023-03-29T05:43:29.890Z,68.03
2023-03-29T05:45:56.680Z,67.89
2023-03-29T05:48:26.871Z,67.72
2023-03-29T05:50:55.275Z,67.71
2023-03-29T05:53:24.277Z,68.18
2023-03-29T05:55:51.303Z,68.12
2023-03-29T05:58:20.166Z,67.96
2023-03-29T06:00:49.448Z,67.95
2023-03-29T06:03:21.329Z,67.99
2023-03-29T06:05:55.064Z,68.02
2023-03-29T06:08:22.289Z,66.26
2023-03-29T06:10:49.058Z,67.93
2023-03-29T06:13:15.828Z,67.98
2023-03-29T06:15:42.392Z,68.06
2023-03-29T06:18:09.910Z,68.18
2023-03-29T06:20:36.526Z,68.25
2023-03-29T06:23:03.081Z,68.48
2023-03-29T06:25:29.974Z,68.50
2023-03-29T06:27:56.515Z,68.38
2023-03-29T06:30:23.390Z,68.57
2023-03-29T06:32:50.573Z,68.62
2023-03-29T06:35:17.144Z,68.92
2023-03-29T06:37:49.492Z,69.08
2023-03-29T06:40:21.241Z,69.41
2023-03-29T06:42:48.631Z,69.32
2023-03-29T06:45:16.065Z,69.38
2023-03-29T06:47:42.610Z,69.84
2023-03-29T06:50:10.148Z,69.92
2023-03-29T06:52:36.710Z,70.54
2023-03-29T06:55:07.539Z,70.42
2023-03-29T06:57:34.266Z,70.78
2023-03-29T07:00:01.525Z,70.98
2023-03-29T07:02:29.108Z,71.14
2023-03-29T07:04:56.234Z,71.16
2023-03-29T07:07:24.181Z,71.33
2023-03-29T07:09:53.851Z,71.79
2023-03-29T07:12:22.290Z,71.76
2023-03-29T07:14:49.008Z,71.57
2023-03-29T07:17:16.648Z,71.43
2023-03-29T07:19:43.444Z,71.75
2023-03-29T07:22:09.996Z,72.05
2023-03-29T07:24:36.573Z,72.11
2023-03-29T07:27:04.670Z,72.09
2023-03-29T07:29:32.303Z,72.13
2023-03-29T07:31:59.035Z,72.12
2023-03-29T07:34:25.658Z,72.37
2023-03-29T07:36:52.295Z,72.50
2023-03-29T07:39:18.976Z,72.35
2023-03-29T07:41:45.576Z,72.50
2023-03-29T07:44:12.084Z,72.35
2023-03-29T07:46:38.672Z,72.25
2023-03-29T07:49:05.935Z,72.18
2023-03-29T07:51:32.514Z,72.29
2023-03-29T07:53:59.856Z,72.54
2023-03-29T07:56:26.573Z,72.28
2023-03-29T07:58:53.224Z,72.51
2023-03-29T08:01:20.593Z,72.60
2023-03-29T08:03:47.362Z,72.83
2023-03-29T08:06:16.141Z,72.79
2023-03-29T08:08:42.701Z,72.65
2023-03-29T08:11:10.066Z,72.38
2023-03-29T08:13:37.416Z,72.58
2023-03-29T08:16:05.739Z,72.71
2023-03-29T08:18:34.266Z,72.39
2023-03-29T08:21:01.698Z,72.16
2023-03-29T08:23:28.437Z,72.14
2023-03-29T08:25:54.970Z,72.32
2023-03-29T08:28:21.523Z,72.29
2023-03-29T08:30:48.160Z,72.20
2023-03-29T08:33:14.859Z,72.18
2023-03-29T08:35:41.683Z,72.47
2023-03-29T08:38:10.686Z,72.23
2023-03-29T08:40:37.212Z,72.04
2023-03-29T08:43:21.763Z,71.55
2023-03-29T08:46:00.495Z,71.63
2023-03-29T08:48:38.384Z,71.63
2023-03-29T08:51:13.460Z,71.96
2023-03-29T08:53:45.134Z,71.92
2023-03-29T08:56:18.649Z,71.95
2023-03-29T08:58:46.709Z,71.98
2023-03-29T09:01:13.717Z,72.01
2023-03-29T09:03:50.516Z,70.92
2023-03-29T09:06:22.006Z,71.39
2023-03-29T09:08:51.140Z,71.28
2023-03-29T09:11:23.712Z,70.43
2023-03-29T09:14:15.765Z,69.99
2023-03-29T09:16:49.118Z,70.98
2023-03-29T09:19:42.683Z,69.39
2023-03-29T09:22:09.330Z,68.68
2023-03-29T09:24:54.036Z,69.84
2023-03-29T09:30:11.170Z,69.46
2023-03-29T09:32:52.528Z,69.80
2023-03-29T09:35:23.681Z,70.19
2023-03-29T09:37:52.976Z,70.68
2023-03-29T09:40:38.219Z,68.38
2023-03-29T09:43:09.067Z,70.11
2023-03-29T09:45:38.561Z,70.33
2023-03-29T09:48:13.812Z,69.00
2023-03-29T09:50:48.700Z,68.56
2023-03-29T09:53:16.071Z,69.55
2023-03-29T09:55:44.191Z,68.93
2023-03-29T09:58:16.631Z,68.89
2023-03-29T10:00:43.064Z,69.51
2023-03-29T10:03:10.686Z,69.61
2023-03-29T10:05:37.873Z,69.68
2023-03-29T10:08:19.477Z,68.83
2023-03-29T10:10:46.779Z,69.63
2023-03-29T10:13:22.868Z,69.07
2023-03-29T10:16:03.795Z,69.00
2023-03-29T10:18:32.644Z,69.89
2023-03-29T10:21:02.598Z,70.02
2023-03-29T10:23:34.635Z,69.62
2023-03-29T10:26:07.710Z,70.13
2023-03-29T10:28:36.210Z,68.27
2023-03-29T10:31:04.124Z,70.33
2023-03-29T10:33:33.833Z,70.39
2023-03-29T10:36:03.727Z,70.37
2023-03-29T10:38:30.340Z,70.90
2023-03-29T10:41:05.476Z,69.65
2023-03-29T10:43:37.217Z,70.01
2023-03-29T10:46:10.619Z,70.50
2023-03-29T10:48:37.158Z,70.89
2023-03-29T10:51:05.915Z,70.93
2023-03-29T10:53:34.665Z,70.81
2023-03-29T10:56:28.673Z,70.05
2023-03-29T10:59:14.452Z,70.05
2023-03-29T11:02:14.696Z,69.92
2023-03-29T11:04:49.168Z,70.65
2023-03-29T11:07:26.148Z,71.23
2023-03-29T11:10:11.160Z,70.99
2023-03-29T11:12:44.477Z,71.12
2023-03-29T11:15:34.501Z,71.06
2023-03-29T11:18:22.175Z,71.18
2023-03-29T11:21:10.605Z,71.45
2023-03-29T11:23:54.307Z,71.80
2023-03-29T11:26:27.530Z,72.48
2023-03-29T11:29:19.610Z,72.70
2023-03-29T11:32:13.184Z,72.95
2023-03-29T11:34:50.047Z,72.41
2023-03-29T11:37:38.042Z,72.79
2023-03-29T11:40:39.143Z,72.80
2023-03-29T11:43:13.505Z,72.88
2023-03-29T11:45:46.137Z,73.12
2023-03-29T11:48:38.971Z,73.15
2023-03-29T11:51:23.846Z,73.26
2023-03-29T11:53:57.328Z,73.62
2023-03-29T11:56:40.240Z,73.71
2023-03-29T11:59:15.055Z,73.74
2023-03-29T12:01:48.621Z,74.28
2023-03-29T12:04:22.860Z,74.58
2023-03-29T12:07:11.905Z,75.29
2023-03-29T12:09:56.109Z,75.23
2023-03-29T12:12:46.663Z,75.34
2023-03-29T12:15:20.297Z,75.70
2023-03-29T12:18:08.231Z,75.87
2023-03-29T12:20:38.634Z,76.04
2023-03-29T12:23:07.193Z,76.17
2023-03-29T12:25:53.026Z,75.49
2023-03-29T12:28:54.999Z,75.42
2023-03-29T12:31:46.270Z,75.83
2023-03-29T12:34:29.577Z,75.72
2023-03-29T12:36:56.213Z,74.25
2023-03-29T12:39:24.434Z,75.78
2023-03-29T12:41:53.098Z,76.14
2023-03-29T12:44:23.448Z,75.63
2023-03-29T12:46:59.253Z,75.43
2023-03-29T12:49:35.803Z,75.13
2023-03-29T12:52:12.587Z,75.92
2023-03-29T12:54:38.956Z,76.11
2023-03-29T12:57:42.665Z,74.55
2023-03-29T13:00:22.897Z,73.99
2023-03-29T13:03:19.934Z,74.20
2023-03-29T13:05:46.848Z,75.42
2023-03-29T13:08:26.289Z,74.59
2023-03-29T13:10:56.764Z,75.36
2023-03-29T13:13:29.622Z,75.09
2023-03-29T13:16:08.480Z,75.73
2023-03-29T13:19:02.467Z,74.87
2023-03-29T13:21:38.041Z,75.92
2023-03-29T13:24:32.205Z,75.23
2023-03-29T13:27:10.132Z,75.89
2023-03-29T13:29:43.207Z,75.90
2023-03-29T13:32:21.478Z,75.07
2023-03-29T13:34:56.323Z,76.64
2023-03-29T13:37:38.574Z,76.98
2023-03-29T13:40:44.593Z,76.22
2023-03-29T13:43:19.927Z,76.15
2023-03-29T13:46:04.247Z,76.47
2023-03-29T13:48:36.696Z,77.72
2023-03-29T13:51:20.988Z,78.08
2023-03-29T13:54:18.664Z,76.58
2023-03-29T13:57:19.622Z,76.27
2023-03-29T14:00:17.817Z,76.13
2023-03-29T14:02:55.054Z,76.37
2023-03-29T14:05:28.782Z,76.27
2023-03-29T14:07:55.738Z,77.03
2023-03-29T14:10:27.413Z,76.38
2023-03-29T14:12:56.410Z,77.01
2023-03-29T14:15:35.142Z,76.50
2023-03-29T14:18:01.988Z,76.96
2023-03-29T14:20:31.247Z,76.86
2023-03-29T14:22:57.603Z,77.00
2023-03-29T14:25:24.249Z,76.89
2023-03-29T14:27:50.618Z,76.61
2023-03-29T14:30:27.742Z,75.57
2023-03-29T14:32:56.407Z,76.51
2023-03-29T14:35:30.445Z,75.57
2023-03-29T14:37:57.097Z,76.45
2023-03-29T14:40:24.401Z,76.38
2023-03-29T14:42:51.110Z,76.35
2023-03-29T14:45:20.922Z,76.34
2023-03-29T14:47:47.621Z,76.43
2023-03-29T14:50:28.351Z,75.47
2023-03-29T14:52:57.563Z,75.97
2023-03-29T14:55:24.861Z,76.44
2023-03-29T14:57:54.482Z,76.42
2023-03-29T15:00:25.914Z,76.72
2023-03-29T15:03:01.862Z,75.86
2023-03-29T15:05:33.748Z,75.94
2023-03-29T15:08:01.920Z,76.15
2023-03-29T15:10:33.203Z,75.63
2023-03-29T15:13:02.428Z,75.63
2023-03-29T15:15:30.819Z,76.15
2023-03-29T15:17:58.668Z,76.34
2023-03-29T15:20:29.176Z,76.17
2023-03-29T15:23:00.814Z,76.23
2023-03-29T15:25:38.609Z,74.79
2023-03-29T15:31:06.691Z,75.99
2023-03-29T15:33:37.370Z,75.44
2023-03-29T15:36:06.554Z,75.58
2023-03-29T15:38:43.056Z,75.37
2023-03-29T15:41:12.332Z,75.68
2023-03-29T15:43:38.828Z,75.43
2023-03-29T15:46:05.729Z,75.30
2023-03-29T15:48:33.780Z,75.16
2023-03-29T15:51:05.518Z,75.26
2023-03-29T15:53:33.288Z,74.99
2023-03-29T15:56:02.139Z,74.54
2023-03-29T15:58:33.549Z,73.96
2023-03-29T16:01:23.389Z,72.89
2023-03-29T16:03:50.881Z,74.12
2023-03-29T16:06:17.914Z,73.92
2023-03-29T16:08:44.443Z,74.03
2023-03-29T16:11:11.497Z,73.79
2023-03-29T16:13:38.156Z,73.82
2023-03-29T16:16:05.321Z,73.68
2023-03-29T16:18:32.065Z,74.07
2023-03-29T16:20:59.356Z,73.96
2023-03-29T16:23:26.513Z,73.92
2023-03-29T16:25:53.151Z,73.87
2023-03-29T16:28:19.759Z,73.59
2023-03-29T16:30:46.567Z,73.26
2023-03-29T16:33:13.255Z,73.32
2023-03-29T16:35:40.897Z,72.97
2023-03-29T16:38:09.109Z,73.16
2023-03-29T16:40:36.792Z,72.92
2023-03-29T16:43:03.861Z,72.94
2023-03-29T16:45:30.781Z,72.85
2023-03-29T16:47:57.381Z,72.63
2023-03-29T16:50:24.092Z,72.72
2023-03-29T16:52:53.620Z,72.72
2023-03-29T16:55:20.194Z,72.60
2023-03-29T16:57:47.916Z,72.57
2023-03-29T17:00:16.942Z,72.48
2023-03-29T17:02:44.471Z,72.69
2023-03-29T17:05:12.481Z,72.53
2023-03-29T17:07:39.685Z,72.54
2023-03-29T17:10:11.584Z,72.18
2023-03-29T17:12:38.402Z,72.60
2023-03-29T17:15:07.579Z,72.38
2023-03-29T17:17:35.514Z,72.42
2023-03-29T17:20:02.104Z,72.40
2023-03-29T17:22:28.619Z,72.59
2023-03-29T17:24:55.179Z,72.45
2023-03-29T17:27:21.666Z,72.29
2023-03-29T17:29:48.208Z,72.43
2023-03-29T17:32:14.786Z,72.39
2023-03-29T17:34:41.710Z,72.34
2023-03-29T17:37:09.572Z,72.53
2023-03-29T17:39:37.842Z,72.34
2023-03-29T17:42:05.353Z,72.45
2023-03-29T17:44:33.274Z,72.46
2023-03-29T17:47:00.939Z,72.52
2023-03-29T17:49:27.739Z,72.49
2023-03-29T17:51:54.400Z,72.60
2023-03-29T17:54:20.960Z,72.69
2023-03-29T17:56:47.492Z,72.66
2023-03-29T17:59:14.424Z,72.76
2023-03-29T18:01:41.628Z,72.73
2023-03-29T18:04:08.180Z,72.84
2023-03-29T18:06:34.756Z,72.78
2023-03-29T18:09:01.588Z,72.86
2023-03-29T18:11:28.521Z,72.87
2023-03-29T18:13:59.021Z,72.62
2023-03-29T18:16:26.125Z,73.02
2023-03-29T18:18:52.718Z,73.13
2023-03-29T18:21:19.337Z,73.07
2023-03-29T18:23:47.442Z,73.02
2023-03-29T18:26:15.958Z,73.06
2023-03-29T18:28:46.567Z,73.30
2023-03-29T18:31:13.435Z,73.43
2023-03-29T18:33:40.176Z,73.41
2023-03-29T18:36:10.725Z,73.52
2023-03-29T18:38:40.592Z,73.59
2023-03-29T18:41:08.583Z,73.81
2023-03-29T18:43:36.986Z,73.76
2023-03-29T18:46:03.716Z,73.65
2023-03-29T18:48:31.065Z,73.78
2023-03-29T18:50:58.314Z,73.83
2023-03-29T18:53:25.047Z,73.93
2023-03-29T18:55:51.629Z,74.09
2023-03-29T18:58:20.270Z,74.17
2023-03-29T19:00:46.779Z,74.34
2023-03-29T19:03:13.566Z,74.33
2023-03-29T19:05:40.508Z,74.32
2023-03-29T19:08:08.515Z,74.44
2023-03-29T19:10:36.692Z,74.44
2023-03-29T19:13:03.680Z,74.40
2023-03-29T19:15:31.139Z,74.44
2023-03-29T19:17:57.808Z,74.52
2023-03-29T19:20:25.559Z,74.45
2023-03-29T19:22:52.717Z,74.42
2023-03-29T19:25:19.560Z,74.41
2023-03-29T19:27:46.374Z,74.57
2023-03-29T19:30:13.874Z,74.13
2023-03-29T19:32:40.488Z,74.59
2023-03-29T19:35:09.622Z,74.52
2023-03-29T19:37:36.490Z,74.53
2023-03-29T19:40:06.761Z,74.58
2023-03-29T19:42:36.085Z,74.63
2023-03-29T19:45:03.890Z,74.45
2023-03-29T19:47:30.639Z,74.29
2023-03-29T19:50:01.210Z,74.11
2023-03-29T19:52:28.653Z,74.56
2023-03-29T19:54:56.556Z,74.71
2023-03-29T19:57:23.881Z,74.54
2023-03-29T19:59:50.877Z,74.59
2023-03-29T20:02:17.503Z,74.68
2023-03-29T20:04:44.007Z,74.68
2023-03-29T20:07:10.605Z,74.61
2023-03-29T20:09:37.570Z,74.64
2023-03-29T20:12:04.982Z,74.36
2023-03-29T20:14:31.682Z,74.64
2023-03-29T20:16:58.532Z,74.48
2023-03-29T20:19:26.823Z,74.72
2023-03-29T20:21:57.443Z,74.59
2023-03-29T20:24:25.263Z,74.30
2023-03-29T20:26:52.729Z,74.50
2023-03-29T20:29:19.212Z,74.39
2023-03-29T20:31:46.609Z,74.42
2023-03-29T20:34:13.470Z,74.41
2023-03-29T20:36:40.390Z,74.34
2023-03-29T20:39:08.175Z,74.50
2023-03-29T20:41:38.382Z,74.36
2023-03-29T20:44:05.739Z,74.34
2023-03-29T20:46:35.301Z,74.20
2023-03-29T20:49:04.637Z,73.95
2023-03-29T20:51:32.216Z,74.07
2023-03-29T20:54:04.738Z,73.98
2023-03-29T20:56:37.411Z,73.97
2023-03-29T20:59:04.502Z,73.90
2023-03-29T21:01:31.443Z,73.67
2023-03-29T21:03:58.460Z,73.88
2023-03-29T21:06:25.072Z,74.01
2023-03-29T21:08:52.501Z,73.92
2023-03-29T21:11:21.022Z,73.95
2023-03-29T21:13:47.670Z,73.85
2023-03-29T21:16:14.342Z,73.79
2023-03-29T21:18:41.591Z,73.79
2023-03-29T21:21:09.671Z,73.57
2023-03-29T21:23:36.908Z,73.81
2023-03-29T21:26:04.631Z,73.84
2023-03-29T21:28:31.315Z,73.87
2023-03-29T21:30:57.745Z,73.86
2023-03-29T21:33:24.250Z,73.89
2023-03-29T21:35:50.811Z,73.93
2023-03-29T21:38:17.510Z,73.90
2023-03-29T21:40:43.826Z,74.04
2023-03-29T21:43:10.331Z,74.07
2023-03-29T21:45:36.657Z,73.85
2023-03-29T21:48:03.088Z,74.00
2023-03-29T21:50:31.317Z,74.03
2023-03-29T21:52:58.897Z,74.04
2023-03-29T21:55:25.386Z,73.97
2023-03-29T21:57:51.729Z,73.81
2023-03-29T22:00:18.656Z,74.09
2023-03-29T22:02:45.894Z,74.09
2023-03-29T22:05:12.402Z,74.19
2023-03-29T22:07:38.774Z,74.41
2023-03-29T22:10:11.489Z,74.12
2023-03-29T22:12:39.191Z,74.38
2023-03-29T22:15:06.860Z,74.55
2023-03-29T22:17:33.591Z,74.34
2023-03-29T22:20:00.297Z,74.32
2023-03-29T22:22:28.077Z,74.08
2023-03-29T22:24:55.699Z,74.13
2023-03-29T22:27:23.171Z,73.91
2023-03-29T22:29:49.477Z,73.95
2023-03-29T22:32:16.113Z,74.05
2023-03-29T22:34:42.538Z,74.09
2023-03-29T22:37:08.862Z,74.19
2023-03-29T22:39:36.533Z,73.92
2023-03-29T22:42:03.170Z,73.98
2023-03-29T22:44:29.615Z,74.11
2023-03-29T22:46:55.967Z,74.08
2023-03-29T22:49:22.325Z,74.08
2023-03-29T22:51:48.745Z,74.19
2023-03-29T22:54:15.074Z,74.08
2023-03-29T22:56:41.471Z,74.43
2023-03-29T22:59:07.919Z,74.23
2023-03-29T23:01:34.352Z,74.14
2023-03-29T23:04:00.838Z,73.56
2023-03-29T23:06:27.309Z,73.65
2023-03-29T23:08:53.635Z,73.25
2023-03-29T23:11:20.212Z,72.90
2023-03-29T23:13:48.626Z,72.76
2023-03-29T23:16:16.058Z,72.66
2023-03-29T23:18:42.441Z,72.78
2023-03-29T23:21:10.357Z,72.69
2023-03-29T23:23:36.830Z,72.81
2023-03-29T23:26:04.377Z,72.46
2023-03-29T23:28:31.345Z,72.74
2023-03-29T23:31:00.272Z,72.71
2023-03-29T23:33:27.777Z,73.01
2023-03-29T23:35:54.602Z,73.24
2023-03-29T23:38:21.199Z,72.99
2023-03-29T23:40:58.971Z,72.37
2023-03-29T23:43:27.210Z,72.87
2023-03-29T23:45:57.498Z,72.53
2023-03-29T23:48:24.325Z,73.17
2023-03-29T23:50:50.688Z,73.06
2023-03-29T23:53:17.221Z,73.09
2023-03-29T23:55:44.586Z,73.19
2023-03-29T23:58:11.501Z,73.11
